Time;durP1;ratioP1;P1;durP2;ratioP2;P2;SDS_P1;SDS_P2;PMS_P1;PMS_P2;Temp;Humidity;BMP_temperature;BMP_pressure;BME280_temperature;BME280_humidity;BME280_pressure;Samples;Min_cycle;Max_cycle;Signal;HPM_P1;HPM_P2
2022/04/24 00:01:14;;;;;;;5.85;5.03;;;;;;;11.19;56.52;98711.09;4957782;28;20502;-81
2022/04/24 00:03:41;;;;;;;6.07;4.68;;;;;;;11.15;57.20;98717.63;4943666;28;20051;-80
2022/04/24 00:06:08;;;;;;;5.88;4.88;;;;;;;11.12;56.93;98701.94;4929251;28;20044;-80
2022/04/24 00:08:35;;;;;;;5.80;5.05;;;;;;;11.10;57.45;98702.06;4954521;28;20502;-80
2022/04/24 00:11:02;;;;;;;5.20;4.65;;;;;;;11.04;57.16;98697.22;4941308;28;20115;-80
2022/04/24 00:13:33;;;;;;;6.10;4.93;;;;;;;10.94;57.44;98680.34;4948021;28;20054;-79
2022/04/24 00:16:00;;;;;;;5.43;4.93;;;;;;;11.04;57.50;98693.72;4952420;28;20423;-81
2022/04/24 00:18:27;;;;;;;5.30;4.80;;;;;;;10.94;57.75;98682.16;4951317;28;20086;-79
2022/04/24 00:20:54;;;;;;;5.68;5.00;;;;;;;10.95;57.43;98687.34;4963206;28;20071;-80
2022/04/24 00:23:20;;;;;;;5.10;4.50;;;;;;;10.84;57.56;98682.84;4956420;28;20051;-81
2022/04/24 00:25:47;;;;;;;4.85;4.20;;;;;;;10.95;57.67;98689.13;4953187;28;20051;-81
2022/04/24 00:28:14;;;;;;;6.28;4.97;;;;;;;10.92;57.52;98686.72;4951487;28;20055;-81
2022/04/24 00:30:41;;;;;;;5.22;4.72;;;;;;;10.87;57.50;98690.53;4957789;28;20070;-80
2022/04/24 00:33:08;;;;;;;6.28;4.88;;;;;;;10.82;57.85;98684.75;4954949;28;20047;-82
2022/04/24 00:35:35;;;;;;;6.05;4.50;;;;;;;10.86;58.09;98693.34;4956055;28;20051;-79
2022/04/24 00:38:01;;;;;;;5.00;4.50;;;;;;;10.81;58.32;98684.88;4958389;28;20051;-83
2022/04/24 00:40:28;;;;;;;5.40;4.75;;;;;;;10.80;57.90;98673.44;4957069;28;20039;-80
2022/04/24 00:42:55;;;;;;;5.53;4.55;;;;;;;10.82;57.77;98676.81;4954949;28;20051;-82
2022/04/24 00:45:22;;;;;;;6.47;5.32;;;;;;;10.78;57.98;98662.13;4940715;28;20047;-83
2022/04/24 00:47:49;;;;;;;5.68;5.00;;;;;;;10.80;57.95;98662.84;4956905;28;20051;-78
2022/04/24 00:50:17;;;;;;;5.90;5.20;;;;;;;10.79;57.63;98665.63;4954422;28;20058;-82
2022/04/24 00:52:45;;;;;;;5.63;4.57;;;;;;;10.81;57.89;98666.34;4954436;28;20055;-82
2022/04/24 00:55:13;;;;;;;6.47;5.07;;;;;;;10.75;58.12;98657.06;4952462;28;20147;-81
2022/04/24 00:57:41;;;;;;;5.70;5.10;;;;;;;10.73;58.06;98664.25;4948327;28;20098;-80
2022/04/24 01:00:09;;;;;;;6.88;5.38;;;;;;;10.71;57.97;98662.69;4954683;28;20510;-79
2022/04/24 01:02:38;;;;;;;5.32;4.82;;;;;;;10.72;57.97;98654.63;4960207;28;20047;-79
2022/04/24 01:05:08;;;;;;;8.52;5.78;;;;;;;10.69;57.54;98665.47;4968167;28;20047;-78
2022/04/24 01:07:34;;;;;;;5.70;5.10;;;;;;;10.73;57.97;98674.00;4969517;28;20117;-79
2022/04/24 01:10:01;;;;;;;5.85;5.18;;;;;;;10.75;57.73;98667.63;4968741;28;20078;-82
2022/04/24 01:12:28;;;;;;;5.80;5.22;;;;;;;10.68;57.29;98645.25;4964093;28;20078;-80
2022/04/24 01:14:54;;;;;;;6.22;5.25;;;;;;;10.82;57.42;98663.59;4965201;28;20079;-79
2022/04/24 01:17:21;;;;;;;5.65;5.07;;;;;;;10.81;57.58;98663.69;4965088;28;20053;-81
2022/04/24 01:19:49;;;;;;;5.53;4.93;;;;;;;10.79;57.22;98655.03;4969959;28;20059;-80
2022/04/24 01:22:17;;;;;;;5.30;4.70;;;;;;;10.80;57.02;98667.31;4953023;28;20051;-82
2022/04/24 01:24:44;;;;;;;5.40;4.90;;;;;;;10.75;57.36;98659.69;4962189;28;20535;-82
2022/04/24 01:27:11;;;;;;;7.05;5.25;;;;;;;10.75;56.77;98654.41;4958848;28;20035;-81
2022/04/24 01:29:38;;;;;;;7.20;5.10;;;;;;;10.82;56.96;98660.94;4960622;28;20777;-83
2022/04/24 01:32:06;;;;;;;6.10;5.50;;;;;;;10.78;56.94;98654.19;4957423;28;20472;-79
2022/04/24 01:34:33;;;;;;;6.38;5.50;;;;;;;10.61;56.83;98628.13;4953688;28;20109;-77
2022/04/24 01:36:59;;;;;;;6.10;5.50;;;;;;;10.71;56.73;98645.00;4955964;28;20059;-80
2022/04/24 01:39:26;;;;;;;5.63;5.05;;;;;;;10.79;56.90;98655.88;4952821;28;20136;-81
2022/04/24 01:41:55;;;;;;;6.07;5.47;;;;;;;10.80;56.63;98657.56;4958506;28;20055;-80
2022/04/24 01:44:22;;;;;;;6.15;5.15;;;;;;;10.75;56.62;98642.97;4955367;28;20070;-82
2022/04/24 01:46:49;;;;;;;6.18;5.30;;;;;;;10.81;56.83;98653.94;4952942;28;20050;-84
2022/04/24 01:49:15;;;;;;;6.45;4.95;;;;;;;10.84;56.65;98664.31;4950766;28;20054;-82
2022/04/24 01:51:44;;;;;;;6.40;5.20;;;;;;;10.85;56.46;98657.22;4958313;28;20117;-80
2022/04/24 01:54:11;;;;;;;6.07;5.38;;;;;;;10.83;56.15;98656.50;4953880;28;20434;-81
2022/04/24 01:56:38;;;;;;;6.63;5.70;;;;;;;10.79;56.29;98662.97;4950669;28;20130;-82
2022/04/24 01:59:04;;;;;;;6.35;5.28;;;;;;;10.72;56.51;98643.19;4953078;28;20555;-82
2022/04/24 02:01:32;;;;;;;10.18;5.90;;;;;;;10.73;56.62;98653.66;4952212;28;20400;-82
2022/04/24 02:03:59;;;;;;;5.50;5.00;;;;;;;10.73;56.43;98645.72;4955449;28;20046;-82
2022/04/24 02:06:26;;;;;;;5.80;5.20;;;;;;;10.74;56.37;98649.22;4953821;28;20166;-82
2022/04/24 02:08:53;;;;;;;6.20;5.30;;;;;;;10.73;56.40;98651.03;4953456;28;20122;-79
2022/04/24 02:11:19;;;;;;;6.22;5.63;;;;;;;10.63;56.58;98631.50;4956867;28;20055;-83
2022/04/24 02:13:46;;;;;;;5.90;5.30;;;;;;;10.73;56.25;98651.03;4952040;28;20078;-84
2022/04/24 02:16:13;;;;;;;7.68;5.78;;;;;;;10.72;56.18;98633.44;4951068;28;20083;-83
2022/04/24 02:18:40;;;;;;;7.18;5.43;;;;;;;10.56;56.39;98619.69;4952461;28;20093;-81
2022/04/24 02:21:06;;;;;;;6.55;5.30;;;;;;;10.73;56.24;98640.44;4950983;28;20051;-77
2022/04/24 02:23:34;;;;;;;6.20;5.60;;;;;;;10.69;56.13;98643.44;4949024;28;20181;-82
2022/04/24 02:26:00;;;;;;;5.80;5.20;;;;;;;10.64;56.51;98633.19;4951623;28;20835;-81
2022/04/24 02:28:27;;;;;;;8.07;5.15;;;;;;;10.68;56.34;98641.75;4948626;28;20059;-80
2022/04/24 02:30:54;;;;;;;6.40;5.40;;;;;;;10.68;56.28;98634.66;4954268;28;20130;-77
2022/04/24 02:33:21;;;;;;;5.68;5.07;;;;;;;10.64;56.53;98646.44;4949478;28;20051;-81
2022/04/24 02:35:47;;;;;;;6.68;5.50;;;;;;;10.58;56.49;98628.34;4951194;28;20086;-82
2022/04/24 02:38:14;;;;;;;7.28;5.20;;;;;;;10.59;56.95;98624.75;4938862;28;20039;-78
2022/04/24 02:40:41;;;;;;;7.38;5.90;;;;;;;10.67;56.86;98632.13;4934525;28;20083;-82
2022/04/24 02:43:08;;;;;;;8.32;5.47;;;;;;;10.67;56.28;98634.78;4953882;28;20050;-82
2022/04/24 02:45:34;;;;;;;5.97;5.43;;;;;;;10.66;56.19;98633.94;4955071;28;20066;-80
2022/04/24 02:48:03;;;;;;;6.20;5.60;;;;;;;10.61;56.29;98638.72;4950891;28;20126;-80
2022/04/24 02:50:29;;;;;;;6.15;5.55;;;;;;;10.48;56.76;98622.06;4949933;28;20043;-80
2022/04/24 02:52:56;;;;;;;6.05;5.40;;;;;;;10.54;56.80;98624.28;4946837;28;20067;-82
2022/04/24 02:55:24;;;;;;;8.50;5.88;;;;;;;10.41;56.81;98607.59;4946272;28;20056;-80
2022/04/24 02:57:52;;;;;;;6.78;5.68;;;;;;;10.54;56.93;98629.56;4948762;28;20044;-82
2022/04/24 03:00:22;;;;;;;6.25;5.65;;;;;;;10.58;56.75;98638.94;4952549;28;20055;-77
2022/04/24 03:02:49;;;;;;;6.10;5.50;;;;;;;10.58;56.77;98636.28;4953176;28;20501;-82
2022/04/24 03:05:19;;;;;;;7.32;6.10;;;;;;;10.57;56.69;98629.31;4952071;28;20055;-78
2022/04/24 03:07:46;;;;;;;7.25;5.47;;;;;;;10.58;56.91;98640.75;4954010;28;20547;-81
2022/04/24 03:10:13;;;;;;;7.60;6.10;;;;;;;10.50;57.03;98638.69;4951956;28;20097;-78
2022/04/24 03:12:41;;;;;;;6.53;5.82;;;;;;;10.45;57.18;98622.28;4946907;28;20051;-81
2022/04/24 03:15:09;;;;;;;6.32;5.72;;;;;;;10.30;56.98;98603.09;4952329;28;20050;-82
2022/04/24 03:17:37;;;;;;;7.10;5.78;;;;;;;10.50;57.01;98633.38;4952732;28;20054;-83
2022/04/24 03:20:06;;;;;;;6.05;5.45;;;;;;;10.58;57.10;98641.59;4950429;28;20357;-82
2022/04/24 03:22:33;;;;;;;7.05;5.93;;;;;;;10.46;56.48;98611.59;4949363;28;20047;-81
2022/04/24 03:25:05;;;;;;;9.00;6.53;;;;;;;10.43;56.85;98617.09;4950579;28;20050;-82
2022/04/24 03:27:31;;;;;;;6.70;6.00;;;;;;;10.53;57.17;98631.38;4948502;28;20047;-81
2022/04/24 03:29:58;;;;;;;7.57;6.53;;;;;;;10.58;57.11;98638.09;4947736;28;20086;-80
2022/04/24 03:32:25;;;;;;;8.20;6.30;;;;;;;10.38;57.32;98602.56;4948283;28;20705;-80
2022/04/24 03:34:52;;;;;;;7.93;6.55;;;;;;;10.55;57.22;98625.94;4952950;28;20188;-80
2022/04/24 03:37:19;;;;;;;7.15;5.88;;;;;;;10.55;57.57;98625.94;4951122;28;20059;-82
2022/04/24 03:39:46;;;;;;;8.32;6.05;;;;;;;10.56;57.12;98635.56;4950814;28;20416;-80
2022/04/24 03:42:12;;;;;;;6.95;6.25;;;;;;;10.53;57.28;98638.47;4964371;28;20070;-79
2022/04/24 03:44:41;;;;;;;7.93;5.97;;;;;;;10.49;57.36;98623.75;4963671;28;20078;-84
2022/04/24 03:47:09;;;;;;;7.78;6.63;;;;;;;10.49;57.59;98627.25;4953171;28;20434;-80
2022/04/24 03:49:36;;;;;;;7.15;5.82;;;;;;;10.51;57.54;98627.13;4952398;28;20089;-80
2022/04/24 03:52:03;;;;;;;7.70;6.60;;;;;;;10.52;57.23;98640.25;4949677;28;20412;-79
2022/04/24 03:54:30;;;;;;;7.25;6.35;;;;;;;10.52;57.11;98628.81;4948803;28;20074;-77
2022/04/24 03:56:57;;;;;;;6.53;5.80;;;;;;;10.35;57.21;98592.19;4956184;28;20051;-82
2022/04/24 03:59:24;;;;;;;7.13;5.90;;;;;;;10.49;57.34;98629.91;4951960;28;20043;-82
2022/04/24 04:01:52;;;;;;;6.88;5.90;;;;;;;10.40;57.69;98606.75;4948646;28;20520;-79
2022/04/24 04:04:19;;;;;;;8.65;6.38;;;;;;;10.48;57.33;98622.91;4955289;28;20059;-79
2022/04/24 04:06:46;;;;;;;8.23;6.60;;;;;;;10.53;57.91;98622.56;4961432;28;20470;-78
2022/04/24 04:09:12;;;;;;;8.50;6.20;;;;;;;10.49;57.83;98623.75;4956758;28;20039;-79
2022/04/24 04:11:39;;;;;;;7.13;6.32;;;;;;;10.46;57.60;98618.69;4957860;28;20475;-79
2022/04/24 04:14:06;;;;;;;8.50;6.00;;;;;;;10.45;57.51;98614.34;4949313;28;20039;-79
2022/04/24 04:16:33;;;;;;;8.00;6.32;;;;;;;10.46;57.98;98623.97;4950942;28;20047;-81
2022/04/24 04:19:00;;;;;;;7.82;6.63;;;;;;;10.49;57.76;98629.06;4948800;28;20087;-80
2022/04/24 04:21:27;;;;;;;6.82;6.18;;;;;;;10.48;57.86;98633.50;4949447;28;20676;-80
2022/04/24 04:23:54;;;;;;;7.20;6.20;;;;;;;10.55;57.97;98632.06;4944291;28;20061;-81
2022/04/24 04:26:20;;;;;;;7.82;6.38;;;;;;;10.60;57.57;98634.38;4947697;28;20075;-79
2022/04/24 04:28:48;;;;;;;7.10;6.32;;;;;;;10.42;57.82;98615.41;4950019;28;20048;-84
2022/04/24 04:31:14;;;;;;;7.65;6.57;;;;;;;10.59;57.75;98650.38;4952858;28;20054;-82
2022/04/24 04:33:41;;;;;;;8.02;6.38;;;;;;;10.60;57.51;98660.84;4954345;28;20039;-81
2022/04/24 04:36:09;;;;;;;8.05;7.00;;;;;;;10.60;57.54;98675.88;4951617;28;20043;-82
2022/04/24 04:38:35;;;;;;;7.38;6.63;;;;;;;10.57;57.76;98687.53;4951406;28;20043;-80
2022/04/24 04:41:03;;;;;;;9.35;7.22;;;;;;;10.57;57.29;98715.81;4949849;28;20498;-78
2022/04/24 04:43:30;;;;;;;7.60;6.80;;;;;;;10.61;57.67;98726.06;4949769;28;20089;-81
2022/04/24 04:45:57;;;;;;;7.38;6.60;;;;;;;10.60;57.46;98731.47;4953968;28;20051;-79
2022/04/24 04:48:24;;;;;;;10.00;7.18;;;;;;;10.60;57.73;98739.41;4948095;28;20056;-79
2022/04/24 04:50:51;;;;;;;7.60;6.80;;;;;;;10.64;58.07;98735.59;4953109;28;20098;-80
2022/04/24 04:53:18;;;;;;;7.50;6.60;;;;;;;10.61;57.58;98719.91;4949970;28;20050;-80
2022/04/24 04:55:45;;;;;;;7.72;6.93;;;;;;;10.66;57.54;98728.38;4947925;28;20047;-80
2022/04/24 04:58:11;;;;;;;8.75;7.40;;;;;;;10.63;57.60;98724.16;4952235;28;20051;-82
2022/04/24 05:00:38;;;;;;;8.35;6.82;;;;;;;10.62;57.73;98735.69;4957584;28;20047;-82
2022/04/24 05:03:06;;;;;;;7.45;6.75;;;;;;;10.57;58.02;98729.88;4959205;28;20054;-81
2022/04/24 05:05:33;;;;;;;8.88;6.68;;;;;;;10.58;58.18;98736.03;4953553;28;20062;-81
2022/04/24 05:08:00;;;;;;;7.78;6.97;;;;;;;10.62;58.57;98732.19;4951936;28;20071;-80
2022/04/24 05:10:26;;;;;;;6.82;6.22;;;;;;;10.64;58.67;98736.44;4956012;28;20059;-79
2022/04/24 05:12:53;;;;;;;7.80;6.78;;;;;;;10.67;58.43;98730.06;4952048;28;20057;-81
2022/04/24 05:15:21;;;;;;;9.55;6.78;;;;;;;10.65;58.79;98727.53;4953249;28;20136;-81
2022/04/24 05:17:48;;;;;;;8.65;7.43;;;;;;;10.62;58.59;98717.16;4949698;28;20471;-80
2022/04/24 05:20:15;;;;;;;8.30;7.47;;;;;;;10.73;58.69;98734.91;4948301;28;20051;-80
2022/04/24 05:22:41;;;;;;;8.05;7.20;;;;;;;10.68;59.41;98724.66;4953508;28;20106;-79
2022/04/24 05:25:10;;;;;;;8.40;7.60;;;;;;;10.46;60.61;98706.00;4951561;28;20062;-78
2022/04/24 05:27:37;;;;;;;9.05;7.95;;;;;;;10.53;61.06;98733.72;4948008;28;20047;-77
2022/04/24 05:30:05;;;;;;;10.60;7.85;;;;;;;10.45;62.54;98742.22;4951378;28;20054;-76
2022/04/24 05:32:40;;;;;;;8.80;7.90;;;;;;;10.37;63.10;98734.00;4951250;28;20074;-79
2022/04/24 05:35:08;;;;;;;8.85;7.95;;;;;;;10.34;63.88;98734.22;4952909;28;20047;-77
2022/04/24 05:37:35;;;;;;;8.30;7.40;;;;;;;10.29;64.21;98727.56;4952225;28;20044;-76
2022/04/24 05:40:01;;;;;;;10.10;8.65;;;;;;;10.25;65.31;98724.28;4949835;28;20054;-76
2022/04/24 05:42:28;;;;;;;9.77;8.77;;;;;;;10.18;65.80;98717.72;4951352;28;20047;-76
2022/04/24 05:44:59;;;;;;;10.52;9.02;;;;;;;10.17;66.12;98726.63;4949683;28;20047;-76
2022/04/24 05:47:25;;;;;;;10.30;8.35;;;;;;;10.14;67.20;98725.03;4953052;28;20480;-77
2022/04/24 05:49:55;;;;;;;10.52;9.43;;;;;;;10.14;67.13;98727.69;4950561;28;20067;-76
2022/04/24 05:52:21;;;;;;;10.20;9.10;;;;;;;10.15;67.77;98723.22;4949427;28;20132;-75
2022/04/24 05:54:48;;;;;;;12.73;9.15;;;;;;;10.14;66.79;98716.25;4953433;28;20478;-77
2022/04/24 05:57:15;;;;;;;11.90;10.13;;;;;;;10.28;67.45;98723.22;4947056;28;20130;-78
2022/04/24 05:59:42;;;;;;;10.05;8.55;;;;;;;10.14;67.82;98698.59;4949162;28;20047;-79
2022/04/24 06:02:08;;;;;;;10.50;9.30;;;;;;;10.33;67.06;98721.09;4951390;28;20051;-78
2022/04/24 06:04:35;;;;;;;11.70;10.00;;;;;;;10.33;67.19;98729.03;4952187;28;20066;-78
2022/04/24 06:07:03;;;;;;;11.27;9.55;;;;;;;10.19;66.84;98701.78;4947906;28;20055;-76
2022/04/24 06:09:29;;;;;;;11.27;9.68;;;;;;;10.36;67.27;98715.59;4952263;28;20042;-77
2022/04/24 06:12:00;;;;;;;12.02;9.93;;;;;;;10.40;68.04;98723.16;4947790;28;21381;-78
2022/04/24 06:14:27;;;;;;;11.32;10.13;;;;;;;10.30;67.71;98698.34;4947717;28;20545;-77
2022/04/24 06:16:53;;;;;;;13.98;9.63;;;;;;;10.48;67.46;98723.47;4953926;28;20051;-76
2022/04/24 06:19:20;;;;;;;11.48;10.23;;;;;;;10.44;67.05;98729.94;4950428;28;20055;-79
2022/04/24 06:21:47;;;;;;;12.02;10.63;;;;;;;10.47;65.96;98727.06;4949764;28;20467;-78
2022/04/24 06:24:15;;;;;;;11.15;9.95;;;;;;;10.45;66.42;98725.50;4953101;28;20074;-77
2022/04/24 06:26:44;;;;;;;12.70;10.80;;;;;;;10.42;67.48;98726.56;4946367;28;20482;-77
2022/04/24 06:29:12;;;;;;;11.93;10.65;;;;;;;10.25;67.18;98696.97;4962901;28;20063;-77
2022/04/24 06:31:39;;;;;;;14.50;10.77;;;;;;;10.43;68.00;98730.91;4946317;28;20071;-77
2022/04/24 06:34:06;;;;;;;13.30;11.60;;;;;;;10.25;68.22;98696.97;4951339;28;20058;-78
2022/04/24 06:36:33;;;;;;;12.68;10.65;;;;;;;10.47;67.61;98728.88;4950129;28;20050;-82
2022/04/24 06:39:00;;;;;;;12.77;11.48;;;;;;;10.56;67.16;98728.19;4947945;28;20043;-76
2022/04/24 06:41:27;;;;;;;14.73;11.93;;;;;;;10.55;67.41;98716.75;4950402;28;20105;-79
2022/04/24 06:43:54;;;;;;;13.52;11.27;;;;;;;10.57;67.90;98713.16;4947251;28;20130;-76
2022/04/24 06:46:23;;;;;;;13.43;11.38;;;;;;;10.68;68.41;98719.38;4954602;28;20054;-77
2022/04/24 06:48:50;;;;;;;15.98;11.73;;;;;;;10.82;67.43;98724.47;4946191;28;20579;-78
2022/04/24 06:51:17;;;;;;;14.18;11.43;;;;;;;10.77;67.22;98705.44;4947182;28;20082;-77
2022/04/24 06:53:46;;;;;;;14.80;11.50;;;;;;;10.84;65.76;98701.38;4952581;28;20039;-79
2022/04/24 06:56:12;;;;;;;13.73;11.95;;;;;;;11.14;65.42;98737.97;4946108;28;20097;-77
2022/04/24 06:58:39;;;;;;;14.23;11.73;;;;;;;11.22;64.14;98722.31;4953265;28;20499;-77
2022/04/24 07:01:12;;;;;;;14.02;11.75;;;;;;;11.26;62.61;98720.28;4952424;28;20232;-78
2022/04/24 07:03:39;;;;;;;12.82;10.85;;;;;;;11.32;63.80;98721.63;4944846;28;20115;-78
2022/04/24 07:06:07;;;;;;;12.88;11.32;;;;;;;11.44;63.87;98715.38;4951290;28;20111;-80
2022/04/24 07:08:35;;;;;;;13.85;11.20;;;;;;;11.59;62.46;98723.00;4946339;28;20102;-78
2022/04/24 07:11:02;;;;;;;13.10;11.52;;;;;;;11.57;62.53;98693.09;4948990;28;20059;-78
2022/04/24 07:13:29;;;;;;;14.25;11.60;;;;;;;11.72;60.98;98696.38;4934820;29;20086;-80
2022/04/24 07:15:56;;;;;;;14.73;12.02;;;;;;;11.89;60.82;98710.97;4948666;28;20122;-79
2022/04/24 07:18:25;;;;;;;13.73;12.18;;;;;;;11.90;60.36;98705.56;4947896;28;20059;-79
2022/04/24 07:20:55;;;;;;;14.15;12.10;;;;;;;11.98;60.46;98701.44;4948754;28;20083;-78
2022/04/24 07:23:22;;;;;;;12.80;11.50;;;;;;;12.10;59.35;98693.38;4947989;28;20514;-79
2022/04/24 07:25:49;;;;;;;13.38;11.98;;;;;;;12.36;58.87;98715.13;4961712;28;20110;-80
2022/04/24 07:28:18;;;;;;;13.60;11.45;;;;;;;12.45;57.71;98717.03;4951027;28;20051;-81
2022/04/24 07:30:46;;;;;;;13.40;12.00;;;;;;;12.54;57.89;98691.56;4948447;28;20137;-79
2022/04/24 07:33:13;;;;;;;15.55;12.10;;;;;;;12.87;58.05;98719.81;4946091;28;20051;-78
2022/04/24 07:35:42;;;;;;;13.57;12.18;;;;;;;12.80;55.76;98665.50;4949861;28;20102;-77
2022/04/24 07:38:09;;;;;;;13.35;11.95;;;;;;;13.41;55.85;98708.19;4948978;28;20109;-79
2022/04/24 07:40:37;;;;;;;13.50;12.10;;;;;;;13.79;55.81;98704.91;4950855;28;20043;-78
2022/04/24 07:43:06;;;;;;;14.57;12.20;;;;;;;14.03;54.02;98706.25;4951054;28;20484;-77
2022/04/24 07:45:39;;;;;;;16.17;11.75;;;;;;;14.19;53.59;98686.25;4944287;28;20075;-78
2022/04/24 07:48:08;;;;;;;12.38;10.95;;;;;;;14.63;51.09;98704.50;4943585;28;20039;-78
2022/04/24 07:50:37;;;;;;;13.18;11.77;;;;;;;14.73;51.65;98710.66;4946082;28;20538;-78
2022/04/24 07:53:05;;;;;;;13.27;11.30;;;;;;;14.69;50.57;98717.22;4946098;28;20792;-78
2022/04/24 07:55:31;;;;;;;13.27;11.88;;;;;;;14.51;50.76;98715.38;4944929;28;20058;-78
2022/04/24 07:57:59;;;;;;;13.60;11.80;;;;;;;14.47;51.71;98720.16;4941533;28;20043;-77
2022/04/24 08:00:29;;;;;;;13.68;11.30;;;;;;;14.30;51.31;98687.00;4941985;28;20054;-78
2022/04/24 08:03:00;;;;;;;13.70;11.23;;;;;;;14.51;50.89;98726.03;4949475;28;20051;-78
2022/04/24 08:05:33;;;;;;;13.35;11.05;;;;;;;14.44;51.35;98722.25;4947216;28;20055;-79
2022/04/24 08:08:01;;;;;;;14.23;11.68;;;;;;;14.45;51.07;98722.13;4948295;28;20055;-79
2022/04/24 08:10:31;;;;;;;12.82;11.52;;;;;;;14.30;50.90;98713.66;4948017;28;20085;-80
2022/04/24 08:12:57;;;;;;;13.02;11.52;;;;;;;14.21;51.75;98711.78;4948099;28;20078;-79
2022/04/24 08:15:25;;;;;;;12.95;11.57;;;;;;;14.29;51.38;98727.09;4950084;28;20086;-78
2022/04/24 08:17:51;;;;;;;14.45;12.50;;;;;;;14.14;51.69;98726.63;4957042;28;20456;-80
2022/04/24 08:20:18;;;;;;;15.05;12.63;;;;;;;13.94;52.24;98728.34;4951015;28;20341;-78
2022/04/24 08:22:47;;;;;;;15.27;12.18;;;;;;;13.69;52.65;98705.69;4948242;28;20142;-79
2022/04/24 08:25:19;;;;;;;13.70;12.07;;;;;;;13.77;51.88;98722.81;4943149;28;20110;-78
2022/04/24 08:27:47;;;;;;;13.10;11.75;;;;;;;13.87;52.33;98726.34;4943233;28;20067;-78
2022/04/24 08:30:16;;;;;;;13.38;11.98;;;;;;;13.99;52.56;98726.16;4944892;28;20228;-79
2022/04/24 08:32:43;;;;;;;14.07;12.43;;;;;;;14.02;51.56;98701.91;4949995;28;20074;-79
2022/04/24 08:35:12;;;;;;;15.68;12.50;;;;;;;14.27;51.78;98713.91;4947286;28;20102;-79
2022/04/24 08:37:40;;;;;;;13.65;12.20;;;;;;;14.52;50.43;98701.09;4949901;28;20362;-79
2022/04/24 08:40:09;;;;;;;14.98;11.93;;;;;;;14.83;50.06;98686.66;4951752;28;20176;-79
2022/04/24 08:42:35;;;;;;;13.45;12.05;;;;;;;15.64;47.90;98725.34;4950857;28;20050;-79
2022/04/24 08:45:05;;;;;;;16.27;11.68;;;;;;;15.83;46.37;98713.75;4949121;28;20082;-78
2022/04/24 08:47:31;;;;;;;13.05;11.60;;;;;;;16.06;46.98;98720.41;4951327;28;20058;-77
2022/04/24 08:50:01;;;;;;;12.20;10.95;;;;;;;16.46;46.32;98711.22;4955979;28;20323;-78
2022/04/24 08:52:29;;;;;;;14.35;12.13;;;;;;;16.61;45.57;98719.56;4956082;28;20927;-77
2022/04/24 08:54:57;;;;;;;13.65;12.18;;;;;;;16.58;45.08;98723.38;4947228;28;20112;-78
2022/04/24 08:57:30;;;;;;;14.18;12.25;;;;;;;16.27;45.59;98708.63;4950657;28;20048;-80
2022/04/24 08:59:59;;;;;;;14.02;11.77;;;;;;;16.12;46.23;98732.34;4946925;28;20235;-77
2022/04/24 09:02:47;;;;;;;13.20;11.70;;;;;;;15.85;46.77;98716.28;4950783;28;20059;-77
2022/04/24 09:05:14;;;;;;;14.45;12.48;;;;;;;15.69;47.37;98719.56;4946078;28;20404;-77
2022/04/24 09:07:43;;;;;;;13.40;12.00;;;;;;;15.57;47.92;98723.41;4949942;28;20058;-75
2022/04/24 09:10:30;;;;;;;16.17;12.27;;;;;;;15.28;48.49;98704.72;4947963;28;20205;-77
2022/04/24 09:12:59;;;;;;;13.32;11.95;;;;;;;15.06;49.82;98676.56;4945791;28;20063;-77
2022/04/24 09:15:28;;;;;;;13.38;11.95;;;;;;;15.37;49.10;98718.06;4946562;28;21034;-78
2022/04/24 09:18:02;;;;;;;14.73;12.50;;;;;;;15.45;48.68;98712.84;4947401;28;20725;-76
2022/04/24 09:20:41;;;;;;;14.10;12.48;;;;;;;15.38;48.86;98711.75;4946719;28;20059;-76
2022/04/24 09:23:08;;;;;;;14.32;12.80;;;;;;;15.17;48.80;98713.72;4951008;28;20098;-77
2022/04/24 09:25:39;;;;;;;14.75;12.27;;;;;;;15.09;49.83;98706.47;4950755;28;20047;-76
2022/04/24 09:28:06;;;;;;;13.85;11.82;;;;;;;15.06;50.07;98690.75;4945523;28;20503;-77
2022/04/24 09:30:36;;;;;;;14.90;13.30;;;;;;;15.04;49.94;98692.69;4948699;28;20062;-79
2022/04/24 09:33:07;;;;;;;14.85;12.57;;;;;;;15.27;49.57;98716.38;4949312;28;20129;-80
2022/04/24 09:35:40;;;;;;;16.52;13.13;;;;;;;15.33;48.97;98714.00;4944816;28;21091;-77
2022/04/24 09:38:17;;;;;;;15.85;13.75;;;;;;;15.49;49.53;98721.41;4943202;28;20067;-76
2022/04/24 09:40:45;;;;;;;14.02;12.50;;;;;;;15.63;49.14;98722.81;4949186;28;20046;-75
2022/04/24 09:43:14;;;;;;;14.70;13.00;;;;;;;15.89;49.11;98725.69;4949389;28;20058;-77
2022/04/24 09:45:45;;;;;;;13.25;11.75;;;;;;;16.25;47.28;98723.97;4943674;28;20058;-76
2022/04/24 09:48:17;;;;;;;13.73;12.18;;;;;;;16.75;46.69;98722.56;4948513;28;20130;-77
2022/04/24 09:50:44;;;;;;;13.75;11.93;;;;;;;17.08;45.26;98714.88;4945877;28;20063;-78
2022/04/24 09:53:13;;;;;;;14.07;11.95;;;;;;;17.05;45.75;98713.34;4946806;28;21390;-78
2022/04/24 09:55:43;;;;;;;13.90;12.05;;;;;;;16.98;46.03;98706.09;4946774;28;20522;-78
2022/04/24 09:58:11;;;;;;;14.55;12.68;;;;;;;16.86;45.29;98704.63;4945598;28;20047;-78
2022/04/24 10:00:39;;;;;;;15.27;13.77;;;;;;;16.86;45.43;98726.84;4944944;28;20074;-79
2022/04/24 10:03:08;;;;;;;13.77;12.10;;;;;;;16.73;45.99;98739.75;4955034;28;20121;-85
2022/04/24 10:05:38;;;;;;;14.38;12.27;;;;;;;16.56;46.66;98727.16;4948369;28;20047;-78
2022/04/24 10:08:06;;;;;;;17.50;13.23;;;;;;;16.52;46.07;98734.66;4953878;28;20751;-80
2022/04/24 10:10:35;;;;;;;14.20;12.70;;;;;;;16.46;46.63;98729.91;4947758;28;20568;-81
2022/04/24 10:13:06;;;;;;;14.40;11.95;;;;;;;16.42;46.88;98744.56;4947151;28;20082;-81
2022/04/24 10:15:35;;;;;;;14.38;11.93;;;;;;;16.38;47.00;98748.50;4949852;28;20055;-81
2022/04/24 10:18:40;;;;;;;12.85;11.55;;;;;;;16.17;47.15;98716.72;4952986;28;20054;-77
2022/04/24 10:21:23;;;;;;;12.63;11.32;;;;;;;16.32;46.89;98743.78;4943849;28;20224;-79
2022/04/24 10:23:51;;;;;;;14.07;12.20;;;;;;;16.37;46.62;98745.00;4947785;28;20054;-76
2022/04/24 10:26:23;;;;;;;15.95;11.80;;;;;;;16.33;46.08;98754.31;4947722;28;20075;-77
2022/04/24 10:29:01;;;;;;;12.82;11.52;;;;;;;16.19;46.40;98743.28;4948865;28;20054;-79
2022/04/24 10:31:30;;;;;;;13.63;10.85;;;;;;;16.26;46.35;98763.88;4948145;28;20106;-81
2022/04/24 10:34:06;;;;;;;12.30;11.10;;;;;;;16.15;46.13;98758.75;4952330;28;20060;-81
2022/04/24 10:36:34;;;;;;;14.98;11.57;;;;;;;16.03;45.73;98750.09;4950115;28;20043;-78
2022/04/24 10:39:13;;;;;;;13.30;11.88;;;;;;;15.91;45.67;98756.56;4948548;28;20648;-79
2022/04/24 10:42:12;;;;;;;14.75;10.98;;;;;;;15.54;46.25;98735.16;4950206;28;20043;-75
2022/04/24 10:44:52;;;;;;;12.00;10.80;;;;;;;15.66;45.69;98765.22;4949209;28;20043;-77
2022/04/24 10:47:19;;;;;;;12.48;11.15;;;;;;;15.62;46.55;98762.00;4949010;28;20484;-81
2022/04/24 10:49:46;;;;;;;12.00;10.65;;;;;;;15.54;46.05;98756.50;4943211;28;20070;-79
2022/04/24 10:52:13;;;;;;;12.27;11.05;;;;;;;15.46;45.92;98756.38;4944929;28;20047;-76
2022/04/24 10:54:41;;;;;;;11.40;10.27;;;;;;;15.43;46.47;98776.16;4949760;28;20051;-77
2022/04/24 10:57:17;;;;;;;12.93;11.10;;;;;;;15.38;45.89;98764.25;4947709;28;20043;-79
2022/04/24 10:59:51;;;;;;;12.27;10.52;;;;;;;15.28;46.41;98768.72;4951695;28;20098;-82
2022/04/24 11:02:28;;;;;;;16.00;10.55;;;;;;;15.24;46.43;98762.03;4946454;28;20054;-82
2022/04/24 11:05:07;;;;;;;12.13;10.50;;;;;;;15.23;46.84;98771.84;4950970;28;20083;-81
2022/04/24 11:07:34;;;;;;;14.40;10.68;;;;;;;15.13;46.83;98764.81;4956778;28;20054;-82
2022/04/24 11:10:10;;;;;;;11.80;10.27;;;;;;;15.19;46.84;98775.75;4950063;28;20591;-81
2022/04/24 11:12:40;;;;;;;11.50;10.25;;;;;;;15.19;46.45;98770.44;4952908;28;21161;-80
2022/04/24 11:15:09;;;;;;;11.88;10.25;;;;;;;15.12;46.65;98763.97;4948795;28;20150;-77
2022/04/24 11:17:37;;;;;;;11.50;10.27;;;;;;;15.09;46.58;98757.13;4951302;28;20051;-78
2022/04/24 11:20:10;;;;;;;13.10;10.43;;;;;;;15.22;46.55;98779.97;4949631;28;20055;-80
2022/04/24 11:22:54;;;;;;;12.30;10.18;;;;;;;15.22;46.19;98767.50;4958905;28;20071;-78
2022/04/24 11:25:27;;;;;;;12.63;10.90;;;;;;;15.27;46.14;98783.88;4929914;28;20047;-76
2022/04/24 11:27:58;;;;;;;12.25;10.77;;;;;;;15.17;46.21;98779.53;4945972;28;20050;-80
2022/04/24 11:30:31;;;;;;;13.60;10.60;;;;;;;15.21;46.31;98780.97;4948001;28;20046;-77